Uni-arise — 3FSV7 — position and weather

sailwx.info

Track history (hours):
 
Tides and Currents Weather Stations Pressure Air Temp Water Temp Dewpoint Dewpoint Depression Visibility Wind Speed Wind Dir Waves Ship Positions

Uni-arise

Last reported at 2015-Mar-25 20:27 UTC. Time now 2015-Mar-29 06:04 UTC.
Position N 22°02' E 114°20'.

Length 165 m; draft 8.1 m.

Type: Cargo ship. MMSI: 351608000.

Date/timePositionNaut miles runAvg speedWind from/ knotsBaromVisibWave heightAir tempDewpointWater temp
2015-Mar-25 20:27N 22°02' E 114°20'9 9.4
2015-Mar-25 19:27N 22°08' E 114°13'1011.2
2015-Mar-25 18:33N 22°16' E 114°06'4 0.4
2015-Mar-25 07:25N 22°20' E 114°05'2 2.7
2015-Mar-25 06:33N 22°20' E 114°08'0 0.0
2015-Mar-25 01:33N 22°20' E 114°08'0 0.0
2015-Mar-25 00:33N 22°20' E 114°08'0 0.0
2015-Mar-24 23:33N 22°20' E 114°08'0 0.0
2015-Mar-24 22:30N 22°20' E 114°08'0 0.0
2015-Mar-24 21:27N 22°20' E 114°08'1 0.6
2015-Mar-24 19:34N 22°19' E 114°07'14 6.9
2015-Mar-24 17:27N 22°09' E 114°17'1111.4
2015-Mar-24 16:30N 22°16' E 114°26'  
2015-Mar-19 01:21N 22°04' E 114°21'2111.7
2015-Mar-18 23:34N 22°19' E 114°06'2 2.0
2015-Mar-18 22:33N 22°20' E 114°08'0 0.0
2015-Mar-18 21:33N 22°20' E 114°08'0 0.0
2015-Mar-18 20:30N 22°20' E 114°08'0 0.0
2015-Mar-18 19:30N 22°20' E 114°08'0 0.0
2015-Mar-18 18:33N 22°20' E 114°08'0 0.0
2015-Mar-18 17:30N 22°20' E 114°08'3 3.2
2015-Mar-18 16:33N 22°18' E 114°06'12 9.0
2015-Mar-18 15:16N 22°09' E 114°14'810.9
2015-Mar-18 14:31N 22°10' E 114°23'1211.2
2015-Mar-18 13:25N 22°20' E 114°31'  
2015-Mar-15 22:33N 20°11' E 110°22'1110.5
2015-Mar-15 21:33N 20°09' E 110°10'  
Track history (hours):
 
Tides and Currents Weather Stations Pressure Air Temp Water Temp Dewpoint Dewpoint Depression Visibility Wind Speed Wind Dir Waves Ship Positions

Uni-arise

Last reported at 2015-Mar-25 20:27 UTC. Time now 2015-Mar-29 06:04 UTC.
Position N 22°02' E 114°20'.

Length 165 m; draft 8.1 m.

Type: Cargo ship. MMSI: 351608000.

Date/timePositionNaut miles runAvg speedWind from/ knotsBaromVisibWave heightAir tempDewpointWater temp
2015-Mar-25 20:27N 22°02' E 114°20'9 9.4
2015-Mar-25 19:27N 22°08' E 114°13'1011.2
2015-Mar-25 18:33N 22°16' E 114°06'4 0.4
2015-Mar-25 07:25N 22°20' E 114°05'2 2.7
2015-Mar-25 06:33N 22°20' E 114°08'0 0.0
2015-Mar-25 01:33N 22°20' E 114°08'0 0.0
2015-Mar-25 00:33N 22°20' E 114°08'0 0.0
2015-Mar-24 23:33N 22°20' E 114°08'0 0.0
2015-Mar-24 22:30N 22°20' E 114°08'0 0.0
2015-Mar-24 21:27N 22°20' E 114°08'1 0.6
2015-Mar-24 19:34N 22°19' E 114°07'14 6.9
2015-Mar-24 17:27N 22°09' E 114°17'1111.4
2015-Mar-24 16:30N 22°16' E 114°26'  
2015-Mar-19 01:21N 22°04' E 114°21'2111.7
2015-Mar-18 23:34N 22°19' E 114°06'2 2.0
2015-Mar-18 22:33N 22°20' E 114°08'0 0.0
2015-Mar-18 21:33N 22°20' E 114°08'0 0.0
2015-Mar-18 20:30N 22°20' E 114°08'0 0.0
2015-Mar-18 19:30N 22°20' E 114°08'0 0.0
2015-Mar-18 18:33N 22°20' E 114°08'0 0.0
2015-Mar-18 17:30N 22°20' E 114°08'3 3.2
2015-Mar-18 16:33N 22°18' E 114°06'12 9.0
2015-Mar-18 15:16N 22°09' E 114°14'810.9
2015-Mar-18 14:31N 22°10' E 114°23'1211.2
2015-Mar-18 13:25N 22°20' E 114°31'  
2015-Mar-15 22:33N 20°11' E 110°22'1110.5
2015-Mar-15 21:33N 20°09' E 110°10'  

Dump ship's entire track history